Terminal Aerodrome Forecast
Issued by NWS

Home | Current Version | Previous Version | Text Only | Print | Product List | Glossary Off
Versions: 1 2 3 4 5 6 7 8 9 10 11 12 13 14 15 16 17 18 19

000
FTUS43 KGRB 270300 AAA
TAFMTW
TAF AMD
KMTW 270314Z 2703/2724 36011G15KT P6SM -RASN BKN050
     FM270600 35011KT P6SM SCT040
     FM271500 36011KT P6SM SCT035=

USA.gov is the U.S. government's official web portal to all federal, state and local government web resources and services.